Time;durP1;ratioP1;P1;durP2;ratioP2;P2;SDS_P1;SDS_P2;PMS_P1;PMS_P2;Temp;Humidity;BMP_temperature;BMP_pressure;BME280_temperature;BME280_humidity;BME280_pressure;Samples;Min_cycle;Max_cycle;Signal;HPM_P1;HPM_P2
2022/08/18 00:02:19;;;;;;;6.68;5.82;;;22.30;99.40;;;;;;5004492;28;20171;-71
2022/08/18 00:04:45;;;;;;;7.10;5.95;;;22.30;99.80;;;;;;5012069;28;20260;-71
2022/08/18 00:07:17;;;;;;;6.03;5.43;;;22.20;99.50;;;;;;4994358;28;20250;-70
2022/08/18 00:09:46;;;;;;;6.10;5.55;;;22.20;99.90;;;;;;5001977;28;20186;-71
2022/08/18 00:12:26;;;;;;;6.65;6.05;;;22.20;99.90;;;;;;5004562;28;20187;-69
2022/08/18 00:14:52;;;;;;;6.72;5.95;;;22.10;99.90;;;;;;5008629;28;20190;-71
2022/08/18 00:17:21;;;;;;;7.13;6.28;;;22.10;99.90;;;;;;5025653;28;20195;-69
2022/08/18 00:19:52;;;;;;;7.80;6.20;;;22.10;99.90;;;;;;5004621;28;20191;-68
2022/08/18 00:22:20;;;;;;;6.70;6.10;;;22.10;99.90;;;;;;5024839;28;20195;-71
2022/08/18 00:24:53;;;;;;;7.13;6.43;;;22.10;99.90;;;;;;5002126;28;20207;-70
2022/08/18 00:27:22;;;;;;;7.72;6.93;;;22.00;99.90;;;;;;5018505;28;20186;-71
2022/08/18 00:29:50;;;;;;;8.48;6.18;;;22.00;99.90;;;;;;4997862;28;20239;-70
2022/08/18 00:32:20;;;;;;;7.15;6.45;;;21.90;99.90;;;;;;5007999;28;20155;-71
2022/08/18 00:34:51;;;;;;;7.03;6.32;;;21.90;99.90;;;;;;4998205;28;20183;-70
2022/08/18 00:37:16;;;;;;;7.25;6.55;;;21.90;99.90;;;;;;5013035;28;20245;-71
2022/08/18 00:39:44;;;;;;;7.85;6.70;;;21.90;99.90;;;;;;5017677;28;20179;-71
2022/08/18 00:42:19;;;;;;;7.60;6.82;;;21.80;99.90;;;;;;5020522;28;20203;-71
2022/08/18 00:44:46;;;;;;;6.60;6.00;;;21.80;99.90;;;;;;5018508;28;20199;-71
2022/08/18 00:47:17;;;;;;;8.00;7.25;;;21.70;99.90;;;;;;5007836;28;20207;-71
2022/08/18 00:49:50;;;;;;;8.25;6.75;;;21.70;99.90;;;;;;5017682;28;20199;-71
2022/08/18 00:52:17;;;;;;;6.72;6.07;;;21.70;99.90;;;;;;5016796;28;20190;-71
2022/08/18 00:54:44;;;;;;;7.47;6.78;;;21.60;99.90;;;;;;4997584;28;20175;-71
2022/08/18 00:57:12;;;;;;;7.78;7.07;;;21.60;99.90;;;;;;4998891;28;20199;-70
2022/08/18 01:00:06;;;;;;;7.65;6.95;;;21.60;99.90;;;;;;5009317;28;20214;-71
2022/08/18 01:02:36;;;;;;;8.63;6.93;;;21.60;99.90;;;;;;5025679;28;20195;-66
2022/08/18 01:05:25;;;;;;;7.60;6.90;;;21.50;99.90;;;;;;4996376;28;20207;-70
2022/08/18 01:07:51;;;;;;;8.18;7.38;;;21.50;99.90;;;;;;5006905;28;20183;-70
2022/08/18 01:10:21;;;;;;;8.23;7.43;;;21.50;99.90;;;;;;5021540;28;20186;-69
2022/08/18 01:12:57;;;;;;;8.13;7.32;;;21.40;99.90;;;;;;5013199;28;20179;-70
2022/08/18 01:15:29;;;;;;;10.38;8.35;;;21.40;99.90;;;;;;4995417;28;20198;-70
2022/08/18 01:24:02;;;;;;;7.95;7.15;;;21.20;99.90;;;;;;5012859;28;20230;-70
2022/08/18 01:26:29;;;;;;;8.77;7.88;;;21.20;99.90;;;;;;5015905;28;20235;-70
2022/08/18 01:29:03;;;;;;;10.13;8.55;;;21.10;99.90;;;;;;5036313;28;20171;-71
2022/08/18 01:31:41;;;;;;;9.32;8.43;;;21.10;99.90;;;;;;5008398;28;20257;-70
2022/08/18 01:34:10;;;;;;;8.77;7.97;;;21.10;99.90;;;;;;5023118;28;20186;-68
2022/08/18 01:36:39;;;;;;;9.07;8.20;;;21.10;99.90;;;;;;5025245;28;20243;-71
2022/08/18 01:39:10;;;;;;;9.23;8.00;;;21.10;99.90;;;;;;4999008;28;20180;-69
2022/08/18 01:41:36;;;;;;;8.40;7.60;;;21.10;99.90;;;;;;5004094;28;20220;-71
2022/08/18 01:44:04;;;;;;;8.73;7.93;;;21.10;99.90;;;;;;5002863;28;20215;-71
2022/08/18 01:46:36;;;;;;;8.90;7.95;;;21.10;99.90;;;;;;5007264;28;20176;-72
2022/08/18 01:49:03;;;;;;;9.15;8.20;;;21.10;99.90;;;;;;5011234;28;20156;-71
2022/08/18 01:51:31;;;;;;;10.10;9.00;;;21.10;99.90;;;;;;5009171;28;20180;-71
2022/08/18 01:53:58;;;;;;;9.18;8.32;;;21.10;99.90;;;;;;5004427;28;20323;-71
2022/08/18 01:56:26;;;;;;;9.65;8.65;;;21.10;99.90;;;;;;5022624;28;20190;-70
2022/08/18 01:58:52;;;;;;;10.40;9.35;;;21.10;99.90;;;;;;5022711;28;20184;-70
2022/08/18 02:01:18;;;;;;;10.52;9.43;;;21.10;99.90;;;;;;5004028;28;20211;-71
2022/08/18 02:03:51;;;;;;;10.55;9.52;;;21.00;99.90;;;;;;5021230;28;20392;-71
2022/08/18 02:06:18;;;;;;;10.65;9.20;;;21.00;99.90;;;;;;5023945;28;20339;-66
2022/08/18 02:08:44;;;;;;;10.68;9.30;;;21.00;99.90;;;;;;5041026;28;20238;-70
2022/08/18 02:11:10;;;;;;;9.95;8.95;;;21.00;99.90;;;;;;5026236;28;20183;-71
2022/08/18 02:13:36;;;;;;;10.98;9.88;;;20.90;99.90;;;;;;5024184;28;20237;-64
2022/08/18 02:16:03;;;;;;;11.13;9.60;;;20.90;99.90;;;;;;5023315;28;20361;-70
2022/08/18 02:18:35;;;;;;;11.05;9.85;;;20.80;99.90;;;;;;5010885;28;20187;-69
2022/08/18 02:21:09;;;;;;;10.10;8.85;;;20.80;99.90;;;;;;5020900;28;20194;-69
2022/08/18 02:23:35;;;;;;;10.05;9.02;;;20.80;99.90;;;;;;5010941;28;20246;-71
2022/08/18 02:26:06;;;;;;;10.68;9.57;;;20.70;99.90;;;;;;5025146;28;20179;-70
2022/08/18 02:28:32;;;;;;;10.90;9.80;;;20.70;99.90;;;;;;5014389;28;20175;-70
2022/08/18 02:31:04;;;;;;;10.82;9.70;;;20.70;99.90;;;;;;5010209;28;20183;-71
2022/08/18 02:33:32;;;;;;;11.98;9.90;;;20.70;99.90;;;;;;5024231;28;20354;-71
2022/08/18 02:36:01;;;;;;;11.38;10.18;;;20.70;99.90;;;;;;5006693;28;20251;-67
2022/08/18 02:38:27;;;;;;;11.73;9.65;;;20.60;99.90;;;;;;5006969;28;20203;-70
2022/08/18 02:41:05;;;;;;;10.93;9.82;;;20.60;99.90;;;;;;5007839;28;20207;-71
2022/08/18 02:43:33;;;;;;;10.30;9.30;;;20.60;99.90;;;;;;5006157;28;20221;-71
2022/08/18 02:46:00;;;;;;;9.98;8.98;;;20.50;99.90;;;;;;5008044;28;20295;-70
2022/08/18 02:50:59;;;;;;;10.40;9.20;;;20.50;99.90;;;;;;5016633;28;20222;-71
2022/08/18 02:53:25;;;;;;;11.38;9.63;;;20.50;99.90;;;;;;5021104;28;20175;-71
2022/08/18 02:55:50;;;;;;;11.82;10.35;;;20.50;99.90;;;;;;5023077;28;20165;-70
2022/08/18 02:58:19;;;;;;;11.02;9.93;;;20.50;99.90;;;;;;5025811;28;20191;-68
2022/08/18 03:00:45;;;;;;;10.77;9.68;;;20.50;99.90;;;;;;5021223;28;20263;-71
2022/08/18 03:03:12;;;;;;;10.57;9.48;;;20.50;99.90;;;;;;5019846;28;20229;-69
2022/08/18 03:05:40;;;;;;;10.63;9.52;;;20.50;99.90;;;;;;5008269;28;20213;-68
2022/08/18 03:08:05;;;;;;;10.93;9.82;;;20.50;99.90;;;;;;4996007;28;20179;-71
2022/08/18 03:10:31;;;;;;;10.13;9.13;;;20.40;99.90;;;;;;5019243;28;20187;-69
2022/08/18 03:12:57;;;;;;;13.13;10.18;;;20.40;99.90;;;;;;4999427;28;20207;-71
2022/08/18 03:15:22;;;;;;;11.18;10.07;;;20.40;99.90;;;;;;5009094;28;20241;-67
2022/08/18 03:17:50;;;;;;;12.73;10.90;;;20.40;99.90;;;;;;5015919;28;20175;-71
2022/08/18 03:20:18;;;;;;;11.80;10.60;;;20.40;99.90;;;;;;5015620;28;20207;-71
2022/08/18 03:22:44;;;;;;;14.93;11.98;;;20.40;99.90;;;;;;5010242;28;20171;-71
2022/08/18 03:25:12;;;;;;;13.55;12.15;;;20.40;99.90;;;;;;5031451;28;20237;-67
2022/08/18 03:27:38;;;;;;;13.18;11.80;;;20.40;99.90;;;;;;5019067;28;20229;-70
2022/08/18 03:30:06;;;;;;;12.93;11.60;;;20.40;99.90;;;;;;5008227;28;20170;-69
2022/08/18 03:32:37;;;;;;;14.65;11.82;;;20.40;99.90;;;;;;5010403;28;20180;-71
2022/08/18 03:35:05;;;;;;;14.23;12.73;;;20.40;99.90;;;;;;5013360;28;20281;-69
2022/08/18 03:37:31;;;;;;;14.55;13.05;;;20.40;99.90;;;;;;5000810;28;20199;-70
2022/08/18 03:39:59;;;;;;;14.35;12.88;;;20.40;99.90;;;;;;5027168;28;20190;-70
2022/08/18 03:42:27;;;;;;;13.98;12.60;;;20.40;99.90;;;;;;5022273;28;20297;-69
2022/08/18 03:44:52;;;;;;;13.30;11.95;;;20.50;99.90;;;;;;5015423;28;20203;-68
2022/08/18 03:47:20;;;;;;;14.57;12.77;;;20.50;99.90;;;;;;5009866;28;20240;-69
2022/08/18 03:49:47;;;;;;;14.85;13.18;;;20.50;99.90;;;;;;5003913;28;20200;-71
2022/08/18 03:52:13;;;;;;;16.20;14.10;;;20.50;99.90;;;;;;5017431;28;20203;-71
2022/08/18 03:54:39;;;;;;;16.25;14.23;;;20.50;99.90;;;;;;5018048;28;20302;-71
2022/08/18 03:57:10;;;;;;;15.52;13.65;;;20.50;99.90;;;;;;5005399;28;20179;-69
2022/08/18 03:59:37;;;;;;;16.20;13.85;;;20.60;99.90;;;;;;5005815;28;20251;-71
2022/08/18 04:02:04;;;;;;;16.35;14.32;;;20.60;99.90;;;;;;5006845;28;20222;-71
2022/08/18 04:04:31;;;;;;;15.25;13.48;;;20.60;99.90;;;;;;5012627;28;20248;-71
2022/08/18 04:07:03;;;;;;;16.38;14.50;;;20.60;99.90;;;;;;4998790;28;20264;-68
2022/08/18 04:09:32;;;;;;;15.00;12.70;;;20.70;99.90;;;;;;4998393;28;20190;-70
2022/08/18 04:12:07;;;;;;;14.70;13.10;;;20.70;99.90;;;;;;5019935;28;20175;-70
2022/08/18 04:14:33;;;;;;;15.13;13.10;;;20.70;99.90;;;;;;4998038;28;20187;-70
2022/08/18 04:17:01;;;;;;;13.88;12.43;;;20.70;99.90;;;;;;5020333;28;20226;-71
2022/08/18 04:19:27;;;;;;;13.23;11.82;;;20.80;99.90;;;;;;5010213;28;20291;-72
2022/08/18 04:21:54;;;;;;;15.38;13.75;;;20.80;99.90;;;;;;4983632;28;20195;-72
2022/08/18 04:24:22;;;;;;;15.05;13.20;;;20.80;99.90;;;;;;5014277;28;20215;-71
2022/08/18 04:26:48;;;;;;;15.10;13.50;;;20.80;99.90;;;;;;5018134;28;20168;-71
2022/08/18 04:29:16;;;;;;;17.10;13.60;;;20.80;99.90;;;;;;5006329;28;20226;-70
2022/08/18 04:31:42;;;;;;;14.45;12.48;;;20.80;99.90;;;;;;5008991;28;20195;-70
2022/08/18 04:34:08;;;;;;;14.32;12.82;;;20.90;99.90;;;;;;5026019;28;20226;-68
2022/08/18 04:36:38;;;;;;;13.75;12.35;;;20.90;99.90;;;;;;5000656;28;20212;-71
2022/08/18 04:39:05;;;;;;;15.73;13.55;;;20.90;99.90;;;;;;5014828;28;20187;-71
2022/08/18 04:41:31;;;;;;;14.77;12.95;;;20.90;99.90;;;;;;5004707;28;20267;-72
2022/08/18 04:44:03;;;;;;;14.57;12.70;;;20.90;99.90;;;;;;4989344;28;20212;-71
2022/08/18 04:46:33;;;;;;;13.65;12.20;;;20.90;99.90;;;;;;5019142;28;20175;-70
2022/08/18 04:48:59;;;;;;;14.68;13.18;;;20.90;99.90;;;;;;4997512;28;20203;-70
2022/08/18 04:51:27;;;;;;;13.45;12.07;;;20.90;99.90;;;;;;5005478;28;20207;-68
2022/08/18 04:53:54;;;;;;;13.57;12.18;;;20.90;99.90;;;;;;5004952;28;20283;-71
2022/08/18 04:56:28;;;;;;;14.50;13.02;;;20.90;99.90;;;;;;5002223;28;20201;-71
2022/08/18 04:58:59;;;;;;;13.25;11.88;;;20.90;99.90;;;;;;5004874;28;20237;-71
2022/08/18 05:01:30;;;;;;;12.63;11.35;;;20.90;99.90;;;;;;5007799;28;20198;-70
2022/08/18 05:03:57;;;;;;;13.35;11.95;;;20.90;99.90;;;;;;5011328;28;20203;-71
2022/08/18 05:06:26;;;;;;;12.18;10.82;;;20.90;99.90;;;;;;4992216;28;20175;-70
2022/08/18 05:08:56;;;;;;;12.73;11.43;;;20.90;99.90;;;;;;4997016;28;20186;-71
2022/08/18 05:11:28;;;;;;;13.27;11.18;;;20.90;99.90;;;;;;4987646;28;20231;-71
2022/08/18 05:13:59;;;;;;;11.32;10.15;;;20.90;99.90;;;;;;5014546;28;20183;-71
2022/08/18 05:16:26;;;;;;;11.82;10.05;;;20.90;99.90;;;;;;5013138;28;20187;-68
2022/08/18 05:18:54;;;;;;;11.32;10.15;;;20.90;99.90;;;;;;5018097;28;20198;-70
2022/08/18 05:21:21;;;;;;;10.88;9.82;;;20.90;99.90;;;;;;5012365;28;20201;-71
2022/08/18 05:23:49;;;;;;;12.18;10.68;;;20.90;99.90;;;;;;5012481;28;20195;-72
2022/08/18 05:26:16;;;;;;;12.15;10.88;;;20.90;99.90;;;;;;5004715;28;20278;-71
2022/08/18 05:28:43;;;;;;;12.20;10.80;;;20.90;99.90;;;;;;5019991;28;20194;-72
2022/08/18 05:31:17;;;;;;;12.50;11.25;;;21.00;99.90;;;;;;5020370;28;20175;-71
2022/08/18 05:33:44;;;;;;;11.20;10.02;;;21.00;99.90;;;;;;4997446;28;20206;-71
2022/08/18 05:36:19;;;;;;;12.27;10.98;;;21.00;99.90;;;;;;5021931;28;20223;-71
2022/08/18 05:38:45;;;;;;;11.82;10.63;;;21.00;99.90;;;;;;4998319;28;20195;-73
2022/08/18 05:41:15;;;;;;;13.63;12.02;;;21.00;99.90;;;;;;4994253;28;20194;-72
2022/08/18 05:43:44;;;;;;;14.35;12.13;;;21.00;99.90;;;;;;5009084;28;20203;-71
2022/08/18 05:46:10;;;;;;;14.63;13.15;;;21.10;99.90;;;;;;5004591;28;20270;-72
2022/08/18 05:48:40;;;;;;;13.60;12.05;;;21.10;99.90;;;;;;5033755;28;20210;-71
2022/08/18 05:51:37;;;;;;;15.10;12.68;;;21.10;99.90;;;;;;5024888;28;20185;-72
2022/08/18 05:56:53;;;;;;;13.77;12.27;;;21.10;99.90;;;;;;5008631;28;20343;-73
2022/08/18 05:59:25;;;;;;;15.45;13.40;;;21.10;99.90;;;;;;4995608;28;20181;-80
2022/08/18 06:01:57;;;;;;;15.77;13.65;;;21.10;99.90;;;;;;5014873;28;20214;-72
2022/08/18 06:04:40;;;;;;;14.85;12.77;;;21.10;99.90;;;;;;5017318;28;20271;-73
2022/08/18 06:07:10;;;;;;;21.27;15.90;;;21.10;99.90;;;;;;4998208;28;20191;-73
2022/08/18 06:09:49;;;;;;;18.45;14.85;;;21.10;99.90;;;;;;4997722;28;20164;-73
2022/08/18 06:12:26;;;;;;;23.90;14.93;;;21.10;99.90;;;;;;4997472;28;20324;-73
2022/08/18 06:15:17;;;;;;;18.02;14.95;;;21.10;99.90;;;;;;4997602;28;20199;-72
2022/08/18 06:18:04;;;;;;;18.90;15.10;;;21.10;99.90;;;;;;4970866;28;20254;-72
2022/08/18 06:20:36;;;;;;;20.23;16.77;;;21.10;99.90;;;;;;4990211;28;20175;-73
2022/08/18 06:23:24;;;;;;;20.67;16.73;;;21.10;99.90;;;;;;5006371;28;20202;-72
2022/08/18 06:25:56;;;;;;;24.05;18.35;;;21.10;99.90;;;;;;4997246;28;20213;-73
2022/08/18 06:28:30;;;;;;;22.55;17.23;;;21.00;99.90;;;;;;4997405;28;20186;-71
2022/08/18 06:31:03;;;;;;;24.15;18.27;;;21.00;99.90;;;;;;5013766;28;20190;-74
2022/08/18 06:33:38;;;;;;;26.55;17.63;;;21.00;99.90;;;;;;5012966;28;20190;-73
2022/08/18 06:36:34;;;;;;;25.60;19.45;;;20.90;99.90;;;;;;4997744;28;20363;-73
2022/08/18 06:39:28;;;;;;;21.90;16.92;;;20.90;99.90;;;;;;4997035;28;20257;-73
2022/08/18 06:41:56;;;;;;;25.00;18.42;;;20.80;99.90;;;;;;5000323;28;20198;-79
2022/08/18 06:44:31;;;;;;;25.17;17.33;;;20.80;99.90;;;;;;5018003;28;20215;-79
2022/08/18 06:47:19;;;;;;;27.45;19.15;;;20.80;99.90;;;;;;4998397;28;20187;-80
2022/08/18 06:49:54;;;;;;;27.98;19.40;;;20.80;99.90;;;;;;5016379;28;20263;-78
2022/08/18 06:52:21;;;;;;;31.75;22.13;;;20.80;99.90;;;;;;5001611;28;20203;-78
2022/08/18 06:54:47;;;;;;;31.90;21.30;;;20.80;99.90;;;;;;5017987;28;20179;-80
2022/08/18 06:57:34;;;;;;;40.75;26.20;;;20.80;99.90;;;;;;4999845;28;20182;-78
2022/08/18 07:00:15;;;;;;;39.92;25.65;;;20.80;99.90;;;;;;4993561;28;20230;-79
2022/08/18 07:02:59;;;;;;;40.90;25.27;;;20.80;99.90;;;;;;4995937;28;20185;-78
2022/08/18 07:05:32;;;;;;;35.85;23.70;;;20.80;99.90;;;;;;4994691;28;20176;-79
2022/08/18 07:08:13;;;;;;;40.65;25.95;;;20.80;99.90;;;;;;4997821;28;20195;-80
2022/08/18 07:10:47;;;;;;;37.25;23.45;;;20.70;99.90;;;;;;5000407;28;20226;-79
2022/08/18 07:13:19;;;;;;;35.90;22.38;;;20.70;99.90;;;;;;4998438;28;20164;-78
2022/08/18 07:15:48;;;;;;;37.08;22.92;;;20.70;99.90;;;;;;4999237;28;20218;-79
2022/08/18 07:18:20;;;;;;;38.50;22.35;;;20.70;99.90;;;;;;5009806;28;20167;-78
2022/08/18 07:20:53;;;;;;;34.28;22.02;;;20.70;99.90;;;;;;5002192;28;20181;-78
2022/08/18 07:23:37;;;;;;;37.00;22.58;;;20.70;99.90;;;;;;4998087;28;20226;-78
2022/08/18 07:26:13;;;;;;;39.20;25.33;;;20.60;99.90;;;;;;4984928;28;20171;-78
2022/08/18 07:28:46;;;;;;;33.65;22.63;;;20.60;99.90;;;;;;4979830;28;20254;-79
2022/08/18 07:31:14;;;;;;;33.72;22.35;;;20.60;99.90;;;;;;4987656;28;20242;-78
2022/08/18 07:33:43;;;;;;;27.20;19.35;;;20.50;99.90;;;;;;4999544;28;20183;-76
2022/08/18 07:36:13;;;;;;;35.15;20.33;;;20.50;99.90;;;;;;4999609;28;20202;-80
2022/08/18 07:38:48;;;;;;;27.27;18.40;;;20.50;99.90;;;;;;4998128;28;20194;-78
2022/08/18 07:41:22;;;;;;;30.13;18.70;;;20.50;99.90;;;;;;4997165;28;20193;-78
2022/08/18 07:43:51;;;;;;;25.25;17.77;;;20.50;99.90;;;;;;4995052;28;20229;-79
2022/08/18 07:46:26;;;;;;;30.00;20.27;;;20.50;99.90;;;;;;4997487;28;20183;-79
2022/08/18 07:48:52;;;;;;;27.73;19.75;;;20.60;99.90;;;;;;5002247;28;20271;-79
2022/08/18 07:51:31;;;;;;;28.25;18.73;;;20.60;99.90;;;;;;5016220;28;20269;-78
2022/08/18 07:54:09;;;;;;;26.77;17.92;;;20.60;99.90;;;;;;5013388;28;20178;-79
2022/08/18 07:56:47;;;;;;;24.80;16.98;;;20.60;99.90;;;;;;4998663;28;20175;-79
2022/08/18 07:59:36;;;;;;;26.65;19.00;;;20.60;99.90;;;;;;4996067;28;20206;-78
2022/08/18 08:02:01;;;;;;;31.83;22.10;;;20.60;99.90;;;;;;4996554;28;20193;-79
2022/08/18 08:04:53;;;;;;;34.45;22.30;;;20.70;99.90;;;;;;4997024;28;20422;-79
2022/08/18 08:07:28;;;;;;;26.40;18.23;;;20.70;99.90;;;;;;5031083;28;20201;-79
2022/08/18 08:10:17;;;;;;;27.88;17.98;;;20.70;99.90;;;;;;4997446;28;20265;-79
2022/08/18 08:12:47;;;;;;;25.90;16.77;;;20.70;99.90;;;;;;5004601;28;20225;-79
2022/08/18 08:15:26;;;;;;;26.77;17.17;;;20.80;99.90;;;;;;5000206;28;20164;-79
2022/08/18 08:18:32;;;;;;;29.17;19.33;;;20.80;99.90;;;;;;4996062;28;20238;-79
2022/08/18 08:21:03;;;;;;;26.63;17.38;;;20.90;99.90;;;;;;4982158;28;20230;-78
2022/08/18 08:23:50;;;;;;;24.98;18.23;;;20.90;99.90;;;;;;5002621;28;20278;-79
2022/08/18 08:26:28;;;;;;;21.58;15.23;;;21.00;99.90;;;;;;4999225;28;20427;-79
2022/08/18 08:29:51;;;;;;;22.63;15.55;;;21.00;99.90;;;;;;4998494;28;20197;-79
2022/08/18 08:32:35;;;;;;;21.65;15.55;;;21.10;99.90;;;;;;4924778;29;20192;-76
2022/08/18 08:35:08;;;;;;;22.27;15.05;;;21.20;99.90;;;;;;4990409;28;20202;-81
2022/08/18 08:37:48;;;;;;;19.80;16.25;;;21.30;99.90;;;;;;4988229;28;20215;-80
2022/08/18 08:40:36;;;;;;;19.95;14.48;;;21.30;99.90;;;;;;5014212;28;20175;-79
2022/08/18 08:43:09;;;;;;;19.15;14.55;;;21.40;99.90;;;;;;5001087;28;20163;-80
2022/08/18 08:45:44;;;;;;;18.55;14.32;;;21.40;99.90;;;;;;4996298;28;20199;-79
2022/08/18 08:48:19;;;;;;;19.52;15.43;;;21.50;99.90;;;;;;5017202;28;20278;-78
2022/08/18 08:50:51;;;;;;;21.73;15.52;;;21.50;99.90;;;;;;5018460;28;20258;-77
2022/08/18 08:53:32;;;;;;;21.95;15.70;;;21.60;99.90;;;;;;4999240;28;20167;-77
2022/08/18 08:56:08;;;;;;;17.70;14.18;;;21.60;99.90;;;;;;4998542;28;20198;-78
2022/08/18 08:58:44;;;;;;;18.67;14.13;;;21.70;99.90;;;;;;4995361;28;20264;-78
2022/08/18 09:01:28;;;;;;;19.25;14.70;;;21.70;99.90;;;;;;4979201;28;20196;-79
2022/08/18 09:04:22;;;;;;;20.73;15.70;;;21.80;99.90;;;;;;4995738;28;20201;-78
2022/08/18 09:07:15;;;;;;;20.83;15.45;;;21.80;99.90;;;;;;4995959;28;20199;-79
2022/08/18 09:10:02;;;;;;;19.35;13.90;;;21.80;99.90;;;;;;4985691;28;20171;-79
2022/08/18 09:12:48;;;;;;;16.88;13.30;;;21.70;99.90;;;;;;4993147;28;20215;-79
2022/08/18 09:15:44;;;;;;;18.40;14.07;;;21.70;99.90;;;;;;4995055;28;20187;-77
2022/08/18 09:18:32;;;;;;;17.92;13.75;;;21.70;99.90;;;;;;4998555;28;20202;-79
2022/08/18 09:21:25;;;;;;;18.08;12.75;;;21.80;99.90;;;;;;4998621;28;20235;-78
2022/08/18 09:24:09;;;;;;;18.40;14.25;;;21.80;99.90;;;;;;4997640;28;20268;-78
2022/08/18 09:26:41;;;;;;;18.25;14.15;;;21.90;99.90;;;;;;5005083;28;20238;-78
2022/08/18 09:29:45;;;;;;;18.17;13.98;;;22.00;99.90;;;;;;5002855;28;20172;-77
2022/08/18 09:32:17;;;;;;;20.35;16.08;;;22.10;99.90;;;;;;5011875;28;20256;-77
2022/08/18 09:34:52;;;;;;;18.35;15.27;;;22.30;99.90;;;;;;5000609;28;20175;-79
2022/08/18 09:37:28;;;;;;;20.65;15.93;;;22.40;99.90;;;;;;5001132;28;20214;-79
2022/08/18 09:43:08;;;;;;;20.48;16.25;;;22.60;99.90;;;;;;4990840;28;20364;-79
2022/08/18 09:46:03;;;;;;;20.23;17.30;;;22.70;99.90;;;;;;5010412;28;20171;-79
2022/08/18 09:48:31;;;;;;;22.13;16.88;;;22.70;99.90;;;;;;4997282;28;20226;-79
2022/08/18 09:51:14;;;;;;;20.23;16.30;;;22.70;99.90;;;;;;5003862;28;20199;-79
2022/08/18 09:53:46;;;;;;;19.58;17.15;;;22.80;99.90;;;;;;4998165;28;20191;-77
2022/08/18 09:56:14;;;;;;;19.73;15.80;;;22.70;99.90;;;;;;4998000;28;20249;-79
2022/08/18 09:58:49;;;;;;;19.83;15.93;;;22.70;99.90;;;;;;5004907;28;20182;-79
2022/08/18 10:01:32;;;;;;;19.20;15.25;;;22.70;99.90;;;;;;4998812;28;20199;-79
2022/08/18 10:04:12;;;;;;;20.05;16.63;;;22.80;99.90;;;;;;4998669;28;20450;-79
2022/08/18 10:06:42;;;;;;;19.00;15.75;;;22.80;99.90;;;;;;4998968;28;20178;-79
2022/08/18 10:09:22;;;;;;;20.08;15.80;;;22.80;99.90;;;;;;5001015;28;20171;-78
2022/08/18 10:12:34;;;;;;;16.00;13.73;;;22.80;99.90;;;;;;4999673;28;20176;-79
2022/08/18 10:15:22;;;;;;;17.45;14.10;;;22.90;99.90;;;;;;4998957;28;20186;-79
2022/08/18 10:18:25;;;;;;;17.95;14.40;;;23.00;99.90;;;;;;5007841;28;20179;-80
2022/08/18 10:21:25;;;;;;;16.52;13.80;;;23.00;99.90;;;;;;5001427;28;20187;-79
2022/08/18 10:24:12;;;;;;;17.30;12.65;;;23.00;99.90;;;;;;4998287;28;20191;-79
2022/08/18 10:26:37;;;;;;;14.65;12.32;;;23.10;99.90;;;;;;5032326;28;20206;-78
2022/08/18 10:29:11;;;;;;;19.20;15.70;;;23.10;99.90;;;;;;5011861;28;20176;-79
2022/08/18 10:31:57;;;;;;;16.55;14.27;;;23.20;99.90;;;;;;5000688;28;20203;-77
2022/08/18 10:34:54;;;;;;;17.33;14.02;;;23.20;99.90;;;;;;5014842;28;20191;-80
2022/08/18 10:37:47;;;;;;;16.40;13.35;;;23.20;99.90;;;;;;5014051;28;20194;-80
2022/08/18 10:40:18;;;;;;;14.90;13.32;;;23.30;99.90;;;;;;5004879;28;20179;-80
2022/08/18 10:42:52;;;;;;;16.10;14.40;;;23.40;99.90;;;;;;5016598;28;20230;-78
2022/08/18 10:45:31;;;;;;;15.05;13.45;;;23.40;99.90;;;;;;4999490;28;20206;-81
2022/08/18 10:48:33;;;;;;;16.10;14.23;;;23.40;99.90;;;;;;5018163;28;20185;-78
2022/08/18 10:51:19;;;;;;;14.18;12.60;;;23.40;99.90;;;;;;5004764;28;20286;-81
2022/08/18 10:53:58;;;;;;;15.98;14.30;;;23.40;99.90;;;;;;5000601;28;20214;-80
2022/08/18 10:56:48;;;;;;;16.30;14.45;;;23.50;99.90;;;;;;5004319;28;20238;-77
2022/08/18 10:59:48;;;;;;;18.23;15.98;;;23.60;99.90;;;;;;4999548;28;20172;-79
2022/08/18 11:02:22;;;;;;;17.55;15.70;;;23.60;99.90;;;;;;4997235;28;20235;-78
2022/08/18 11:04:52;;;;;;;20.35;17.08;;;23.70;99.90;;;;;;4998262;28;20195;-78
2022/08/18 11:07:29;;;;;;;20.00;17.80;;;23.80;99.90;;;;;;5017816;28;20170;-78
2022/08/18 11:09:58;;;;;;;19.15;17.25;;;23.90;99.90;;;;;;5001429;28;20174;-78
2022/08/18 11:12:52;;;;;;;17.85;16.05;;;23.90;99.90;;;;;;5012284;28;20179;-79
2022/08/18 11:15:31;;;;;;;19.80;17.75;;;24.10;99.90;;;;;;5009191;28;20202;-75
2022/08/18 11:18:27;;;;;;;20.92;18.75;;;24.30;99.90;;;;;;5006789;28;20183;-76
2022/08/18 11:21:13;;;;;;;20.25;18.15;;;24.40;99.90;;;;;;5016110;28;20211;-79
2022/08/18 11:23:39;;;;;;;21.35;16.80;;;24.50;99.90;;;;;;5017360;28;20195;-79
2022/08/18 11:26:15;;;;;;;19.05;17.05;;;24.60;99.90;;;;;;5001002;28;20187;-77
2022/08/18 11:28:41;;;;;;;19.17;17.17;;;24.70;99.90;;;;;;5022428;28;20209;-78
2022/08/18 11:31:09;;;;;;;18.80;16.90;;;24.80;99.90;;;;;;5017869;28;20211;-78
2022/08/18 11:33:40;;;;;;;17.92;16.10;;;24.90;99.90;;;;;;5002180;28;20175;-79
2022/08/18 11:36:09;;;;;;;18.58;16.77;;;25.00;99.90;;;;;;5000532;28;20282;-80
2022/08/18 11:38:39;;;;;;;18.55;16.63;;;25.00;99.90;;;;;;5018002;28;20203;-79
2022/08/18 11:41:11;;;;;;;19.05;16.92;;;25.10;99.90;;;;;;5000353;28;20310;-80
2022/08/18 11:43:38;;;;;;;19.02;17.13;;;25.10;99.90;;;;;;5001316;28;20223;-80
2022/08/18 11:46:40;;;;;;;19.25;17.23;;;25.20;99.90;;;;;;5012736;28;20175;-81
2022/08/18 11:49:32;;;;;;;18.40;16.52;;;25.20;99.90;;;;;;5007556;28;20182;-80
2022/08/18 11:52:23;;;;;;;19.83;16.58;;;25.30;99.90;;;;;;4998808;28;20185;-79
2022/08/18 11:54:53;;;;;;;18.60;16.75;;;25.40;99.90;;;;;;5001869;28;20206;-80
2022/08/18 11:57:42;;;;;;;17.55;15.70;;;25.40;99.90;;;;;;5000281;28;20312;-79
2022/08/18 12:00:40;;;;;;;16.92;15.25;;;25.50;99.90;;;;;;5001494;28;20274;-80
2022/08/18 12:03:29;;;;;;;17.30;15.60;;;25.60;99.90;;;;;;4976846;28;20299;-81
2022/08/18 12:06:11;;;;;;;17.25;15.48;;;25.70;99.90;;;;;;5002193;28;20214;-80
2022/08/18 12:08:52;;;;;;;17.17;14.77;;;25.70;99.90;;;;;;5021959;28;20206;-78
2022/08/18 12:11:24;;;;;;;17.50;15.80;;;25.70;99.90;;;;;;5012332;28;20206;-80
2022/08/18 12:14:05;;;;;;;18.15;16.25;;;25.70;99.90;;;;;;5000200;28;20187;-80
2022/08/18 12:16:42;;;;;;;15.23;13.68;;;25.60;99.90;;;;;;4996643;28;20180;-80
2022/08/18 12:19:11;;;;;;;15.68;14.10;;;25.60;99.90;;;;;;5018932;28;20205;-80
2022/08/18 12:21:53;;;;;;;17.35;15.02;;;25.60;99.90;;;;;;4994228;28;20286;-78
2022/08/18 12:24:21;;;;;;;15.60;14.00;;;25.60;99.90;;;;;;5018348;28;20283;-80
2022/08/18 12:26:52;;;;;;;16.85;15.15;;;25.50;99.90;;;;;;5017053;28;20273;-81
2022/08/18 12:29:23;;;;;;;16.02;14.52;;;25.50;99.90;;;;;;5002004;28;20238;-80
2022/08/18 12:31:51;;;;;;;16.38;13.88;;;25.50;99.90;;;;;;5019486;28;20190;-80
2022/08/18 12:34:26;;;;;;;17.50;15.73;;;25.60;99.90;;;;;;5002027;28;20235;-79
2022/08/18 12:36:57;;;;;;;18.02;16.20;;;25.60;99.90;;;;;;5016014;28;20195;-82
2022/08/18 12:39:23;;;;;;;16.77;15.13;;;25.70;99.90;;;;;;4995390;28;20210;-80
2022/08/18 12:41:49;;;;;;;18.25;16.35;;;25.90;99.90;;;;;;5001154;28;20172;-80
2022/08/18 12:44:42;;;;;;;19.52;17.42;;;26.00;99.90;;;;;;5009619;28;20213;-81
2022/08/18 12:47:16;;;;;;;18.52;15.43;;;26.10;99.90;;;;;;4997563;28;20187;-80
2022/08/18 12:49:47;;;;;;;17.25;15.55;;;26.10;99.90;;;;;;5021422;28;20229;-80
2022/08/18 12:52:13;;;;;;;18.52;16.63;;;26.20;99.90;;;;;;5017535;28;20314;-80
2022/08/18 12:54:42;;;;;;;16.92;15.27;;;26.30;99.90;;;;;;5018627;28;20206;-79
2022/08/18 12:57:22;;;;;;;17.27;15.57;;;26.30;99.90;;;;;;5001221;28;20207;-80
2022/08/18 12:59:48;;;;;;;16.35;14.43;;;26.50;99.90;;;;;;4987580;28;20175;-79
2022/08/18 13:02:15;;;;;;;17.05;15.35;;;26.60;99.90;;;;;;5015370;28;20198;-81
2022/08/18 13:04:42;;;;;;;17.00;15.30;;;26.70;99.90;;;;;;4996293;28;20254;-81
2022/08/18 13:07:09;;;;;;;14.77;13.35;;;26.80;99.90;;;;;;5000329;28;20176;-79
2022/08/18 13:09:36;;;;;;;15.38;13.82;;;26.90;99.90;;;;;;5002079;28;20281;-80
2022/08/18 13:12:03;;;;;;;17.52;15.73;;;27.00;99.90;;;;;;5016053;28;20179;-80
2022/08/18 13:14:28;;;;;;;17.33;15.63;;;27.00;99.90;;;;;;4997797;28;20175;-81
2022/08/18 13:16:57;;;;;;;17.77;15.95;;;27.00;99.90;;;;;;5017955;28;20274;-82
2022/08/18 13:19:23;;;;;;;16.13;14.48;;;26.90;99.90;;;;;;4996406;28;20195;-80
2022/08/18 13:21:51;;;;;;;16.70;15.07;;;26.80;99.90;;;;;;5007949;28;20203;-81